x

North Equatorial One- 470 Nm East Of Martinique (41040) Wave Buoy

6:50pm - Fri 29th Aug 2014 All times are UTC.

  • Sig Wave height 6.6ft
  • Swell Direction
  • Peak Period 8s
  • Average Period 6s
  • Wind
    18mph, 22mph gusts
  • Sea Temp 82°f
  • Air Temp 82°f
  • Sea Pressure 1014.1mb

More Historic Weather Station data

Upgrade to MSW Pro to gain access to the past 30 days of data for over 8000 Wavebouys and Weather Stations around the globe.

Join Pro

Comparision Forecast

View Surf forecast
   
Fri 08/29 6:50pm 6.5ft 8s 6s 18 22 mph 1014.1mb 82f 82f
5:50pm 5.5ft 8s 6s 18 22 mph 1014.6mb 82f 82f
4:50pm 5.5ft 8s 6s 18 22 mph 1015mb 82f 82f
3:50pm 6ft 8s 6s 16 20 mph 1015.6mb 82f 81f
2:50pm 6ft 8s 6s 16 20 mph 1015.9mb 82f 81f
1:50pm 6ft 8s 6s 16 18 mph 1016mb 82f 82f
12:50pm 6ft 9s 6s 16 18 mph 1016.1mb 82f 81f
11:50am 5.5ft 8s 6s 16 18 mph 1016mb 82f 82f
10:50am 6ft 8s 6s 16 18 mph 1015.7mb 82f 82f
9:50am 6ft 9s 6s 16 18 mph 1015.2mb 82f 81f
8:50am 5.5ft 8s 6s 16 20 mph 1014.9mb 82f 81f
7:50am 6ft 9s 6s 18 20 mph 1014.2mb 82f 81f
6:50am 6ft 9s 6s 18 20 mph 1014mb 82f 81f
5:50am 6ft 8s 6s 18 20 mph 1014mb 82f 81f
4:50am 6ft 8s 6s 20 22 mph 1014.4mb 82f 81f
3:50am 7ft 9s 6s 20 25 mph 1014.7mb 82f 81f
2:50am 6.5ft 8s 6s 20 25 mph 1014.9mb 82f 81f
1:50am 6ft 9s 6s 20 25 mph 1015mb 82f 82f
12:50am 6ft 9s 6s 18 22 mph 1015mb 82f 81f
Thu 08/28 11:50pm 6ft 8s 6s 20 22 mph 1014.3mb 82f 82f
10:50pm 5.5ft 8s 6s 20 25 mph 1013.8mb 82f 82f
9:50pm 7ft 8s 6s 20 22 mph 1013.2mb 82f 81f
8:50pm 6ft 8s 6s 20 22 mph 1013mb 82f 82f
7:50pm 6ft 9s 6s 18 22 mph 1012.8mb 82f 81f
6:50pm 6ft 8s 6s 13 16 mph 1013.2mb 82f 80f
5:50pm 5.5ft 9s 6s 13 20 mph 1013.7mb 82f 78f
4:50pm 6ft 8s 6s 13 16 mph 1014.2mb 83f 81f
3:50pm 6ft 8s 6s 16 18 mph 1014.7mb 82f 81f
2:50pm 5.5ft 8s 6s 16 18 mph 1015.6mb 82f 81f
1:50pm 6ft 8s 6s 16 22 mph 1015.9mb 82f 82f
12:50pm 5ft 7s 5s 16 20 mph 1015.5mb 82f 81f
11:50am 5.5ft 8s 5s 18 22 mph 1014.8mb 82f 81f
10:50am 5.5ft 8s 6s 18 20 mph 1014.2mb 82f 81f
9:50am 5.5ft 8s 6s 16 18 mph 1013.8mb 82f 81f
8:50am 5ft 8s 6s 16 18 mph 1013.4mb 82f 80f
7:50am 5.5ft 8s 6s 16 20 mph 1013.5mb 82f 79f
6:50am 5.5ft 8s 6s 16 18 mph 1013.2mb 82f 81f
5:50am 5.5ft 8s 6s 13 18 mph 1013.3mb 82f 81f
4:50am 6ft 8s 6s 18 20 mph 1013.7mb 82f 80f
3:50am 6ft 9s 6s 18 22 mph 1014.9mb 82f 79f
2:50am 6ft 8s 6s 16 20 mph 1015.6mb 82f 81f
1:50am 6ft 8s 6s 16 20 mph 1015.5mb 82f 81f
12:50am 5.5ft 9s 6s 16 18 mph 1015.3mb 82f 81f
Wed 08/27 11:50pm 6ft 8s 6s 18 20 mph 1015mb 82f 81f
9:50pm 6ft 8s 6s 16 18 mph 1014.8mb 82f 80f
8:50pm 5.5ft 8s 6s 11 13 mph 1014.7mb 82f 81f
7:50pm 5.5ft 9s 6s 11 13 mph 1014.5mb 82f 81f
6:50pm 6ft 9s 6s 7 11 mph 1014.7mb 82f 79f
5:50pm 6ft 8s 7s 2 4 mph 1014.9mb 82f 78f
4:50pm 5.5ft 9s 6s 4 7 mph 1015.7mb 82f 77f
3:50pm 6ft 9s 6s 18
mph
1016.1mb 82f 80f
2:50pm 6ft 9s 6s 7 9 mph 1016.7mb 82f 76f
1:50pm 6ft 9s 6s 11 18 mph 1016.5mb 82f 78f
12:50pm 6ft 9s 6s 18 22 mph 1016.1mb 82f 81f
11:50am 6.5ft 9s 6s 11 16 mph 1015.7mb 82f 81f
10:50am 7ft 8s 6s 13 18 mph 1014.9mb 82f 81f
9:50am 7ft 9s 6s 16 20 mph 1014.2mb 82f 80f
8:50am 7.5ft 8s 6s 18 22 mph 1013.7mb 82f 79f
7:50am 8ft 9s 6s 25 29 mph 1013.3mb 82f 79f
6:50am 8ft 8s 6s 20 29 mph 1013.4mb 82f 80f
5:50am 8ft 8s 6s 22 25 mph 1013.2mb 82f 79f
4:50am 8.5ft 8s 6s 20 27 mph 1014.1mb 82f 80f
3:50am 9.5ft 8s 7s 20 22 mph 1014.9mb 82f 81f
2:50am 9ft 8s 6s 20 25 mph 1015.4mb 82f 81f
1:50am 8.5ft 8s 6s 22 27 mph 1015.4mb 82f 81f
12:50am 9ft 8s 6s 22 27 mph 1015mb 82f 81f
Tue 08/26 11:50pm 9ft 8s 6s 18 22 mph 1014.8mb 82f 81f
10:50pm 9ft 8s 6s 22 27 mph 1014.3mb 82f 82f
9:50pm 9ft 8s 6s 22 29 mph 1013.8mb 82f 82f
8:50pm 9ft 8s 6s 25 29 mph 1013.2mb 82f 81f
7:50pm 9ft 8s 6s 25 29 mph 1013.1mb 82f 82f
6:50pm 8ft 8s 6s 25 29 mph 1013.3mb 82f 82f
5:50pm 9ft 8s 6s 25 29 mph 1013.5mb 82f 82f
4:50pm 9ft 8s 6s 22 27 mph 1014.1mb 82f 82f
3:50pm 9ft 8s 6s 25 31 mph 1014.8mb 82f 82f
2:50pm 9ft 7s 6s 25 31 mph 1015.1mb 82f 82f
1:50pm 8ft 8s 6s 27 31 mph 1015.4mb 82f 82f
12:50pm 7.5ft 7s 6s 25 31 mph 1015.5mb 82f 82f
11:50am 8ft 8s 6s 25 29 mph 1015.3mb 82f 82f
10:50am 7.5ft 7s 5s 25 29 mph 1014.6mb 82f 82f
9:50am 6.5ft 7s 5s 25 29 mph 1014.1mb 82f 82f
8:50am 6ft 7s 5s 22 27 mph 1013.9mb 82f 82f
7:50am 7ft 7s 5s 22 27 mph 1013.4mb 82f 82f
6:50am 6.5ft 7s 6s 25 27 mph 1012.9mb 82f 82f
5:50am 6ft 7s 5s 25 29 mph 1012.9mb 82f 82f
4:50am 6ft 7s 5s 20 27 mph 1013.8mb 82f 82f
3:50am 5.5ft 7s 5s 22 29 mph 1014.1mb 82f 82f
2:50am 5.5ft 7s 5s 22 27 mph 1014.9mb 82f 82f
1:50am 5ft 7s 5s 20 27 mph 1015mb 83f 82f
12:50am 5ft 7s 5s 20 25 mph 1014.8mb 83f 82f
Mon 08/25 11:50pm 5ft 6s 5s 20 25 mph 1014.3mb 82f 82f
10:50pm 4.5ft 6s 5s 22 27 mph 1013.8mb 82f 82f
9:50pm 4.5ft 7s 5s 22 27 mph 1013mb 82f 82f
8:50pm 4.5ft 7s 5s 22 25 mph 1012.7mb 82f 82f